Terminal Aerodrome Forecast
Issued by NWS

Current Version | Previous Version | Text Only | Print | Product List | Glossary Off
Versions: 1 2 3 4 5 6 7 8 9 10 11 12 13 14 15 16 17 18 19 20 21 22 23 24

620
FTUS41 KPBZ 201607 AAB
TAFHLG
TAF AMD
KHLG 201607Z 2016/2112 21008G16KT 6SM -RA OVC007
     FM202000 20006KT P6SM OVC015
     FM210900 20004KT P6SM BKN025=

USA.gov is the U.S. government's official web portal to all federal, state and local government web resources and services.